Port Alberni, British Columbia

Past 24 Hour Conditions

Date / Time
(PST)
Conditions Temp
(°F)
Humidity
(%)
Dew Point
(°F)
Wind
(mph)
Pressure
(inches)
Visibility
(miles)
29 January 2015
4:00 N/A 39 96 37 calm 30.4 N/A
3:00 N/A 38 96 37 calm 30.4 N/A
2:00 N/A 37 96 36 calm 30.4 N/A
1:00 N/A 38 96 37 calm 30.4 N/A
00:00 N/A 36 96 35 calm 30.4 N/A
28 January 2015
23:00 N/A 37 95 35 calm 30.4 N/A
22:00 N/A 38 96 37 NNW 2 30.4 N/A
21:00 N/A 37 95 35 calm 30.4 N/A
20:00 N/A 36 96 35 calm 30.4 N/A
19:00 N/A 35 94 33 calm 30.4 N/A
18:00 N/A 37 93 35 calm 30.4 N/A
17:00 N/A 42 89 39 calm 30.4 N/A
16:00 N/A 48 73 40 SW 3 30.4 N/A
15:00 N/A 49   70 40 SW 2 30.4 N/A
14:00 N/A 49   70 39 SSW 3 30.4 N/A
13:00 N/A 47 77 40 calm 30.4 N/A
12:00 N/A 43 88 40 WNW 2 30.4 N/A
11:00 N/A 41 97 41 calm 30.4 N/A
10:00 N/A 39 97 38 calm 30.4 N/A
9:00 N/A 37 96 37 calm 30.4 N/A
8:00 N/A 34 96 33 calm 30.4 N/A
7:00 N/A 33   96 32 calm 30.4 N/A
6:00 N/A 36 95 35 NW 2 30.4 N/A
5:00 N/A 39 94 37 calm 30.3 N/A
4:00 N/A 42 94 40 calm 30.3 N/A
N/A Not available
↑ Highest temperature
↓ Lowest temperature

If you require additional historical weather information, please visit Climate Data Online.

What we are doing

Date modified: